createdAt,value
2019-05-26T00:00:56.306Z,1007.77
2019-05-26T00:01:56.363Z,1007.79
2019-05-26T00:02:56.354Z,1007.84
2019-05-26T00:03:56.226Z,1007.84
2019-05-26T00:04:56.249Z,1007.81
2019-05-26T00:05:56.201Z,1007.80
2019-05-26T00:06:56.249Z,1007.77
2019-05-26T00:07:56.214Z,1007.75
2019-05-26T00:08:56.257Z,1007.70
2019-05-26T00:09:56.159Z,1007.66
2019-05-26T00:10:56.178Z,1007.68
2019-05-26T00:11:56.130Z,1007.66
2019-05-26T00:12:56.255Z,1007.60
2019-05-26T00:13:56.110Z,1007.59
2019-05-26T00:14:56.209Z,1007.59
2019-05-26T00:15:56.096Z,1007.60
2019-05-26T00:16:56.112Z,1007.62
2019-05-26T00:17:56.080Z,1007.72
2019-05-26T00:18:57.178Z,1007.66
2019-05-26T00:19:56.040Z,1007.70
2019-05-26T00:20:56.140Z,1007.66
2019-05-26T00:21:56.025Z,1007.69
2019-05-26T00:22:56.051Z,1007.63
2019-05-26T00:23:56.577Z,1007.59
2019-05-26T00:24:56.070Z,1007.61
2019-05-26T00:25:55.978Z,1007.60
2019-05-26T00:26:56.086Z,1007.59
2019-05-26T00:27:55.952Z,1007.59
2019-05-26T00:28:56.032Z,1007.67
2019-05-26T00:29:55.933Z,1007.63
2019-05-26T00:30:56.005Z,1007.58
2019-05-26T00:31:55.914Z,1007.70
2019-05-26T00:32:56.023Z,1007.66
2019-05-26T00:33:55.926Z,1007.69
2019-05-26T00:34:55.948Z,1007.67
2019-05-26T00:35:55.860Z,1007.61
2019-05-26T00:36:55.978Z,1007.63
2019-05-26T00:37:55.852Z,1007.58
2019-05-26T00:38:55.991Z,1007.63
2019-05-26T00:39:55.825Z,1007.58
2019-05-26T00:40:55.978Z,1007.58
2019-05-26T00:41:55.805Z,1007.61
2019-05-26T00:42:55.991Z,1007.58
2019-05-26T00:43:55.789Z,1007.55
2019-05-26T00:44:55.839Z,1007.57
2019-05-26T00:45:55.767Z,1007.48
2019-05-26T00:46:55.812Z,1007.51
2019-05-26T00:47:55.735Z,1007.48
2019-05-26T00:48:55.832Z,1007.51
2019-05-26T00:49:55.738Z,1007.50
2019-05-26T00:50:55.735Z,1007.47
2019-05-26T00:51:55.691Z,1007.36
2019-05-26T00:52:56.696Z,1007.44
2019-05-26T00:53:55.685Z,1007.41
2019-05-26T00:54:55.796Z,1007.39
2019-05-26T00:55:55.646Z,1007.39
2019-05-26T00:56:55.682Z,1007.40
2019-05-26T00:57:55.620Z,1007.37
2019-05-26T00:58:55.720Z,1007.36
2019-05-26T00:59:55.620Z,1007.29
2019-05-26T01:00:55.703Z,1007.33
2019-05-26T01:01:55.603Z,1007.34
2019-05-26T01:02:55.627Z,1007.31
2019-05-26T01:03:55.553Z,1007.30
2019-05-26T01:04:55.663Z,1007.22
2019-05-26T01:05:55.548Z,1007.32
2019-05-26T01:06:55.639Z,1007.23
2019-05-26T01:08:05.783Z,1007.26
2019-05-26T01:08:56.502Z,1007.23
2019-05-26T01:09:55.600Z,1007.26
2019-05-26T01:10:55.497Z,1007.22
2019-05-26T01:11:55.582Z,1007.16
2019-05-26T01:12:55.458Z,1007.20
2019-05-26T01:13:55.489Z,1007.19
2019-05-26T01:14:55.471Z,1007.18
2019-05-26T01:15:55.502Z,1007.19
2019-05-26T01:16:56.125Z,1007.21
2019-05-26T01:17:55.518Z,1007.18
2019-05-26T01:18:55.385Z,1007.24
2019-05-26T01:19:55.458Z,1007.17
2019-05-26T01:20:55.369Z,1007.21
2019-05-26T01:21:55.446Z,1007.18
2019-05-26T01:22:55.345Z,1007.14
2019-05-26T01:23:55.462Z,1007.19
2019-05-26T01:24:55.374Z,1007.18
2019-05-26T01:25:55.398Z,1007.18
2019-05-26T01:26:55.305Z,1007.13
2019-05-26T01:27:55.387Z,1007.21
2019-05-26T01:28:55.296Z,1007.16
2019-05-26T01:29:55.290Z,1007.17
2019-05-26T01:30:55.290Z,1007.15
2019-05-26T01:31:55.314Z,1007.15
2019-05-26T01:32:55.239Z,1007.16
2019-05-26T01:33:55.321Z,1007.15
2019-05-26T01:34:55.213Z,1007.16
2019-05-26T01:35:55.283Z,1007.13
2019-05-26T01:36:55.188Z,1007.16
2019-05-26T01:37:55.263Z,1007.22
2019-05-26T01:38:55.167Z,1007.18
2019-05-26T01:39:55.258Z,1007.10
2019-05-26T01:40:55.169Z,1007.17
2019-05-26T01:41:55.173Z,1007.20
2019-05-26T01:42:55.127Z,1007.08
2019-05-26T01:43:55.188Z,1007.13
2019-05-26T01:44:55.101Z,1007.15
2019-05-26T01:45:55.342Z,1007.18
2019-05-26T01:46:55.082Z,1007.14
2019-05-26T01:47:55.114Z,1007.19
2019-05-26T01:48:55.060Z,1007.17
2019-05-26T01:49:55.127Z,1007.16
2019-05-26T01:50:55.066Z,1007.17
2019-05-26T01:51:55.156Z,1007.13
2019-05-26T01:52:55.038Z,1007.21
2019-05-26T01:53:55.060Z,1007.27
2019-05-26T01:54:54.986Z,1007.18
2019-05-26T01:55:55.199Z,1007.18
2019-05-26T01:56:55.007Z,1007.20
2019-05-26T01:57:55.081Z,1007.11
2019-05-26T01:58:54.935Z,1007.11
2019-05-26T01:59:55.006Z,1007.12
2019-05-26T02:00:54.930Z,1007.10
2019-05-26T02:01:58.582Z,1007.16
2019-05-26T02:02:54.900Z,1007.09
2019-05-26T02:03:54.926Z,1007.09
2019-05-26T02:04:54.885Z,1007.12
2019-05-26T02:05:54.929Z,1007.04
2019-05-26T02:06:54.885Z,1007.06
2019-05-26T02:07:54.967Z,1007.07
2019-05-26T02:08:54.836Z,1007.01
2019-05-26T02:09:54.829Z,1006.98
2019-05-26T02:10:54.816Z,1007.01
2019-05-26T02:11:54.914Z,1006.94
2019-05-26T02:12:54.800Z,1006.98
2019-05-26T02:13:54.883Z,1006.95
2019-05-26T02:14:54.789Z,1006.89
2019-05-26T02:15:54.804Z,1006.91
2019-05-26T02:16:54.787Z,1006.87
2019-05-26T02:17:54.850Z,1006.92
2019-05-26T02:18:54.719Z,1006.87
2019-05-26T02:19:54.831Z,1006.95
2019-05-26T02:20:54.717Z,1006.89
2019-05-26T02:21:54.737Z,1006.89
2019-05-26T02:22:54.714Z,1006.91
2019-05-26T02:23:54.758Z,1006.90
2019-05-26T02:24:54.656Z,1006.89
2019-05-26T02:25:54.771Z,1006.86
2019-05-26T02:26:54.629Z,1006.83
2019-05-26T02:27:54.704Z,1006.80
2019-05-26T02:28:54.619Z,1006.77
2019-05-26T02:29:54.743Z,1006.86
2019-05-26T02:30:54.597Z,1006.91
2019-05-26T02:31:54.700Z,1006.86
2019-05-26T02:32:54.610Z,1006.85
2019-05-26T02:33:54.607Z,1006.85
2019-05-26T02:34:54.548Z,1006.80
2019-05-26T02:35:54.637Z,1006.83
2019-05-26T02:36:54.521Z,1006.79
2019-05-26T02:37:54.573Z,1006.87
2019-05-26T02:39:01.939Z,1006.85
2019-05-26T02:39:55.519Z,1006.79
2019-05-26T02:40:54.589Z,1006.80
2019-05-26T02:41:54.470Z,1006.77
2019-05-26T02:42:54.611Z,1006.75
2019-05-26T02:43:54.446Z,1006.78
2019-05-26T02:44:59.116Z,1006.83
2019-05-26T02:45:55.420Z,1006.73
2019-05-26T02:46:54.509Z,1006.76
2019-05-26T02:47:54.415Z,1006.73
2019-05-26T02:48:54.443Z,1006.73
2019-05-26T02:49:54.379Z,1006.70
2019-05-26T02:50:54.436Z,1006.70
2019-05-26T02:51:54.361Z,1006.70
2019-05-26T02:52:54.452Z,1006.79
2019-05-26T02:53:54.358Z,1006.76
2019-05-26T02:55:55.443Z,1006.75
2019-05-26T02:56:54.369Z,1006.71
2019-05-26T02:57:54.305Z,1006.69
2019-05-26T02:59:05.077Z,1006.64
2019-05-26T02:59:54.273Z,1006.69
2019-05-26T03:00:54.303Z,1006.71
2019-05-26T03:02:03.119Z,1006.79
2019-05-26T03:02:55.232Z,1006.71
2019-05-26T03:03:54.361Z,1006.68
2019-05-26T03:04:54.220Z,1006.70
2019-05-26T03:05:54.326Z,1006.72
2019-05-26T03:06:54.186Z,1006.74
2019-05-26T03:07:54.239Z,1006.74
2019-05-26T03:08:54.169Z,1006.69
2019-05-26T03:09:54.279Z,1006.76
2019-05-26T03:10:54.149Z,1006.72
2019-05-26T03:11:54.175Z,1006.78
2019-05-26T03:12:54.128Z,1006.81
2019-05-26T03:13:54.192Z,1006.80
2019-05-26T03:14:54.142Z,1006.73
2019-05-26T03:16:55.222Z,1006.69
2019-05-26T03:17:54.109Z,1006.72
2019-05-26T03:18:54.091Z,1006.72
2019-05-26T03:19:54.171Z,1006.77
2019-05-26T03:20:54.038Z,1006.76
2019-05-26T03:22:55.206Z,1006.71
2019-05-26T03:23:54.002Z,1006.72
2019-05-26T03:24:54.079Z,1006.69
2019-05-26T03:25:53.980Z,1006.65
2019-05-26T03:26:54.080Z,1006.65
2019-05-26T03:27:53.965Z,1006.73
2019-05-26T03:28:53.982Z,1006.69
2019-05-26T03:29:53.992Z,1006.71
2019-05-26T03:30:53.997Z,1006.78
2019-05-26T03:31:53.913Z,1006.67
2019-05-26T03:32:54.008Z,1006.69
2019-05-26T03:33:53.899Z,1006.74
2019-05-26T03:34:53.941Z,1006.71
2019-05-26T03:35:53.881Z,1006.75
2019-05-26T03:36:53.932Z,1006.65
2019-05-26T03:37:53.852Z,1006.68
2019-05-26T03:38:53.954Z,1006.73
2019-05-26T03:39:53.843Z,1006.70
2019-05-26T03:40:53.883Z,1006.77
2019-05-26T03:41:53.805Z,1006.69
2019-05-26T03:42:53.879Z,1006.72
2019-05-26T03:43:53.808Z,1006.73
2019-05-26T03:44:53.892Z,1006.68
2019-05-26T03:45:53.788Z,1006.65
2019-05-26T03:46:53.799Z,1006.64
2019-05-26T03:47:53.732Z,1006.67
2019-05-26T03:48:53.812Z,1006.64
2019-05-26T03:49:53.716Z,1006.69
2019-05-26T03:50:53.850Z,1006.62
2019-05-26T03:51:53.708Z,1006.70
2019-05-26T03:52:53.744Z,1006.70
2019-05-26T03:53:53.805Z,1006.68
2019-05-26T03:54:53.760Z,1006.69
2019-05-26T03:55:53.684Z,1006.69
2019-05-26T03:56:53.782Z,1006.69
2019-05-26T03:57:53.660Z,1006.68
2019-05-26T03:58:53.668Z,1006.66
2019-05-26T03:59:53.611Z,1006.73
2019-05-26T04:00:53.723Z,1006.65
2019-05-26T04:01:57.520Z,1006.63
2019-05-26T04:02:53.612Z,1006.67
2019-05-26T04:03:53.569Z,1006.67
2019-05-26T04:04:53.617Z,1006.71
2019-05-26T04:05:53.569Z,1006.68
2019-05-26T04:06:53.627Z,1006.71
2019-05-26T04:07:53.517Z,1006.67
2019-05-26T04:08:53.633Z,1006.69
2019-05-26T04:10:04.419Z,1006.67
2019-05-26T04:10:54.578Z,1006.66
2019-05-26T04:11:53.598Z,1006.63
2019-05-26T04:12:53.461Z,1006.63
2019-05-26T04:13:53.591Z,1006.55
2019-05-26T04:14:53.462Z,1006.52
2019-05-26T04:15:53.497Z,1006.59
2019-05-26T04:16:56.209Z,1006.57
2019-05-26T04:17:53.510Z,1006.59
2019-05-26T04:18:53.395Z,1006.64
2019-05-26T04:19:53.407Z,1006.61
2019-05-26T04:20:53.371Z,1006.63
2019-05-26T04:21:53.514Z,1006.65
2019-05-26T04:22:53.353Z,1006.67
2019-05-26T04:23:53.436Z,1006.71
2019-05-26T04:24:53.427Z,1006.61
2019-05-26T04:25:53.362Z,1006.57
2019-05-26T04:26:53.338Z,1006.64
2019-05-26T04:27:53.397Z,1006.62
2019-05-26T04:28:53.315Z,1006.56
2019-05-26T04:29:53.397Z,1006.53
2019-05-26T04:30:53.264Z,1006.52
2019-05-26T04:31:53.333Z,1006.57
2019-05-26T04:32:53.240Z,1006.55
2019-05-26T04:33:53.303Z,1006.58
2019-05-26T04:34:53.227Z,1006.55
2019-05-26T04:35:53.321Z,1006.52
2019-05-26T04:36:53.247Z,1006.52
2019-05-26T04:37:53.240Z,1006.55
2019-05-26T04:38:53.170Z,1006.52
2019-05-26T04:39:53.245Z,1006.50
2019-05-26T04:40:53.143Z,1006.51
2019-05-26T04:41:53.357Z,1006.56
2019-05-26T04:42:53.169Z,1006.57
2019-05-26T04:43:53.180Z,1006.51
2019-05-26T04:44:53.113Z,1006.60
2019-05-26T04:45:53.181Z,1006.51
2019-05-26T04:46:53.112Z,1006.49
2019-05-26T04:47:53.199Z,1006.53
2019-05-26T04:48:53.093Z,1006.50
2019-05-26T04:49:53.111Z,1006.54
2019-05-26T04:50:53.081Z,1006.55
2019-05-26T04:51:53.151Z,1006.49
2019-05-26T04:53:05.280Z,1006.52
2019-05-26T04:53:54.039Z,1006.53
2019-05-26T04:54:53.039Z,1006.58
2019-05-26T04:55:53.043Z,1006.53
2019-05-26T04:56:53.094Z,1006.54
2019-05-26T04:57:52.991Z,1006.55
2019-05-26T04:58:53.083Z,1006.54
2019-05-26T04:59:52.938Z,1006.50
2019-05-26T05:00:53.000Z,1006.52
2019-05-26T05:01:52.933Z,1006.55
2019-05-26T05:02:53.035Z,1006.56
2019-05-26T05:03:52.900Z,1006.54
2019-05-26T05:04:53.020Z,1006.49
2019-05-26T05:05:52.877Z,1006.55
2019-05-26T05:06:52.922Z,1006.57
2019-05-26T05:07:52.931Z,1006.59
2019-05-26T05:08:52.932Z,1006.55
2019-05-26T05:09:52.827Z,1006.56
2019-05-26T05:10:52.845Z,1006.52
2019-05-26T05:11:52.830Z,1006.55
2019-05-26T05:12:52.888Z,1006.53
2019-05-26T05:13:52.794Z,1006.55
2019-05-26T05:14:52.889Z,1006.55
2019-05-26T05:15:52.766Z,1006.53
2019-05-26T05:16:52.792Z,1006.52
2019-05-26T05:17:52.794Z,1006.53
2019-05-26T05:18:52.801Z,1006.64
2019-05-26T05:19:52.722Z,1006.59
2019-05-26T05:20:52.812Z,1006.60
2019-05-26T05:21:52.731Z,1006.57
2019-05-26T05:22:52.756Z,1006.60
2019-05-26T05:23:52.682Z,1006.67
2019-05-26T05:24:52.750Z,1006.60
2019-05-26T05:25:52.650Z,1006.65
2019-05-26T05:26:52.780Z,1006.54
2019-05-26T05:27:52.626Z,1006.54
2019-05-26T05:28:52.692Z,1006.56
2019-05-26T05:29:52.660Z,1006.61
2019-05-26T05:30:52.677Z,1006.61
2019-05-26T05:31:52.581Z,1006.58
2019-05-26T05:32:52.689Z,1006.61
2019-05-26T05:33:52.582Z,1006.55
2019-05-26T05:34:52.604Z,1006.60
2019-05-26T05:35:52.566Z,1006.62
2019-05-26T05:36:52.635Z,1006.56
2019-05-26T05:37:52.551Z,1006.57
2019-05-26T05:38:52.564Z,1006.60
2019-05-26T05:39:52.509Z,1006.57
2019-05-26T05:40:59.379Z,1006.62
2019-05-26T05:41:53.471Z,1006.54
2019-05-26T05:42:52.557Z,1006.56
2019-05-26T05:43:52.474Z,1006.56
2019-05-26T05:44:52.478Z,1006.55
2019-05-26T05:45:52.478Z,1006.53
2019-05-26T05:46:52.532Z,1006.54
2019-05-26T05:47:52.451Z,1006.53
2019-05-26T05:48:52.531Z,1006.55
2019-05-26T05:49:52.435Z,1006.54
2019-05-26T05:50:52.407Z,1006.51
2019-05-26T05:51:52.378Z,1006.56
2019-05-26T05:52:52.423Z,1006.54
2019-05-26T05:53:52.388Z,1006.55
2019-05-26T05:54:52.445Z,1006.53
2019-05-26T05:55:52.355Z,1006.57
2019-05-26T05:56:55.486Z,1006.60
2019-05-26T05:57:52.417Z,1006.59
2019-05-26T05:58:52.389Z,1006.56
2019-05-26T05:59:52.334Z,1006.59
2019-05-26T06:00:52.382Z,1006.56
2019-05-26T06:01:52.252Z,1006.52
2019-05-26T06:02:52.292Z,1006.51
2019-05-26T06:03:52.238Z,1006.49
2019-05-26T06:04:52.334Z,1006.53
2019-05-26T06:05:52.202Z,1006.44
2019-05-26T06:06:52.317Z,1006.42
2019-05-26T06:07:52.182Z,1006.45
2019-05-26T06:08:52.224Z,1006.44
2019-05-26T06:09:52.230Z,1006.46
2019-05-26T06:10:52.233Z,1006.43
2019-05-26T06:11:56.485Z,1006.43
2019-05-26T06:12:52.279Z,1006.47
2019-05-26T06:13:52.122Z,1006.44
2019-05-26T06:14:52.367Z,1006.39
2019-05-26T06:15:52.095Z,1006.39
2019-05-26T06:16:52.279Z,1006.35
2019-05-26T06:17:52.106Z,1006.42
2019-05-26T06:18:52.395Z,1006.37
2019-05-26T06:19:52.112Z,1006.41
2019-05-26T06:20:52.449Z,1006.38
2019-05-26T06:21:52.038Z,1006.43
2019-05-26T06:22:52.431Z,1006.38
2019-05-26T06:23:52.017Z,1006.37
2019-05-26T06:24:53.695Z,1006.35
2019-05-26T06:25:52.001Z,1006.30
2019-05-26T06:27:53.487Z,1006.32
2019-05-26T06:28:54.173Z,1006.26
2019-05-26T06:29:58.920Z,1006.30
2019-05-26T06:30:55.036Z,1006.29
2019-05-26T06:31:51.983Z,1006.22
2019-05-26T06:33:52.511Z,1006.29
2019-05-26T06:34:52.012Z,1006.29
2019-05-26T06:36:53.015Z,1006.25
2019-05-26T06:38:53.486Z,1006.22
2019-05-26T06:39:52.337Z,1006.26
2019-05-26T06:40:51.857Z,1006.28
2019-05-26T06:42:53.116Z,1006.27
2019-05-26T06:43:52.279Z,1006.34
2019-05-26T06:44:53.865Z,1006.25
2019-05-26T06:45:53.545Z,1006.34
2019-05-26T06:46:51.781Z,1006.38
2019-05-26T06:48:52.875Z,1006.39
2019-05-26T06:50:53.466Z,1006.41
2019-05-26T06:52:53.015Z,1006.39
2019-05-26T06:54:52.921Z,1006.41
2019-05-26T06:55:53.654Z,1006.41
2019-05-26T06:56:51.793Z,1006.43
2019-05-26T06:57:53.693Z,1006.45
2019-05-26T06:58:51.718Z,1006.42
2019-05-26T06:59:53.808Z,1006.44
2019-05-26T07:00:51.689Z,1006.36
2019-05-26T07:01:53.966Z,1006.41
2019-05-26T07:02:51.603Z,1006.48
2019-05-26T07:04:52.682Z,1006.48
2019-05-26T07:05:53.959Z,1006.49
2019-05-26T07:06:51.606Z,1006.50
2019-05-26T07:07:53.970Z,1006.44
2019-05-26T07:08:51.515Z,1006.44
2019-05-26T07:10:52.705Z,1006.48
2019-05-26T07:11:59.716Z,1006.50
2019-05-26T07:12:52.527Z,1006.50
2019-05-26T07:14:53.010Z,1006.47
2019-05-26T07:15:56.524Z,1006.42
2019-05-26T07:16:51.417Z,1006.46
2019-05-26T07:18:53.036Z,1006.44
2019-05-26T07:20:53.024Z,1006.47
2019-05-26T07:22:52.971Z,1006.45
2019-05-26T07:23:55.212Z,1006.44
2019-05-26T07:24:51.519Z,1006.47
2019-05-26T07:26:52.815Z,1006.42
2019-05-26T07:28:51.319Z,1006.40
2019-05-26T07:29:55.155Z,1006.42
2019-05-26T07:30:51.322Z,1006.38
2019-05-26T07:31:55.162Z,1006.41
2019-05-26T07:32:51.243Z,1006.38
2019-05-26T07:34:52.365Z,1006.43
2019-05-26T07:36:51.268Z,1006.41
2019-05-26T07:38:51.268Z,1006.46
2019-05-26T07:40:51.287Z,1006.47
2019-05-26T07:42:09.354Z,1006.54
2019-05-26T07:42:52.251Z,1006.48
2019-05-26T07:43:53.201Z,1006.41
2019-05-26T07:44:51.135Z,1006.42
2019-05-26T07:45:53.330Z,1006.44
2019-05-26T07:46:51.166Z,1006.46
2019-05-26T07:48:52.244Z,1006.39
2019-05-26T07:49:51.127Z,1006.37
2019-05-26T07:50:51.038Z,1006.41
2019-05-26T07:51:51.098Z,1006.40
2019-05-26T07:52:51.063Z,1006.41
2019-05-26T07:53:51.114Z,1006.39
2019-05-26T07:54:51.824Z,1006.38
2019-05-26T07:55:51.027Z,1006.41
2019-05-26T07:56:51.030Z,1006.39
2019-05-26T07:57:50.998Z,1006.42
2019-05-26T07:58:51.053Z,1006.38
2019-05-26T07:59:50.959Z,1006.40
2019-05-26T08:00:51.118Z,1006.42
2019-05-26T08:01:50.959Z,1006.39
2019-05-26T08:02:51.123Z,1006.41
2019-05-26T08:03:50.900Z,1006.45
2019-05-26T08:04:51.113Z,1006.29
2019-05-26T08:05:50.875Z,1006.35
2019-05-26T08:06:51.109Z,1006.40
2019-05-26T08:07:50.876Z,1006.37
2019-05-26T08:08:51.062Z,1006.31
2019-05-26T08:09:50.812Z,1006.30
2019-05-26T08:10:51.035Z,1006.36
2019-05-26T08:11:50.795Z,1006.39
2019-05-26T08:12:50.882Z,1006.32
2019-05-26T08:13:50.801Z,1006.34
2019-05-26T08:14:50.933Z,1006.34
2019-05-26T08:15:50.774Z,1006.42
2019-05-26T08:16:50.885Z,1006.34
2019-05-26T08:17:50.850Z,1006.35
2019-05-26T08:19:51.912Z,1006.24
2019-05-26T08:20:50.914Z,1006.25
2019-05-26T08:21:53.848Z,1006.23
2019-05-26T08:22:50.861Z,1006.27
2019-05-26T08:23:50.710Z,1006.24
2019-05-26T08:24:50.713Z,1006.28
2019-05-26T08:25:50.701Z,1006.23
2019-05-26T08:26:50.937Z,1006.13
2019-05-26T08:27:50.621Z,1006.23
2019-05-26T08:28:50.695Z,1006.20
2019-05-26T08:29:50.625Z,1006.18
2019-05-26T08:30:51.093Z,1006.16
2019-05-26T08:31:50.589Z,1006.17
2019-05-26T08:33:51.711Z,1006.15
2019-05-26T08:34:50.584Z,1006.19
2019-05-26T08:35:50.528Z,1006.15
2019-05-26T08:36:50.716Z,1006.15
2019-05-26T08:38:51.706Z,1006.17
2019-05-26T08:39:50.631Z,1006.16
2019-05-26T08:40:50.658Z,1006.19
2019-05-26T08:41:50.611Z,1006.11
2019-05-26T08:42:50.674Z,1006.03
2019-05-26T08:43:50.626Z,1006.05
2019-05-26T08:44:50.596Z,1006.03
2019-05-26T08:45:50.502Z,1006.02
2019-05-26T08:46:50.508Z,1006.10
2019-05-26T08:47:50.407Z,1006.09
2019-05-26T08:48:50.497Z,1005.96
2019-05-26T08:49:50.416Z,1006.02
2019-05-26T08:50:50.628Z,1006.03
2019-05-26T08:51:50.361Z,1006.04
2019-05-26T08:52:50.410Z,1006.01
2019-05-26T08:53:50.525Z,1005.99
2019-05-26T08:54:50.460Z,1005.95
2019-05-26T08:55:50.325Z,1005.96
2019-05-26T08:56:50.430Z,1005.91
2019-05-26T08:57:50.294Z,1005.97
2019-05-26T08:58:50.347Z,1005.98
2019-05-26T08:59:50.343Z,1006.01
2019-05-26T09:00:50.357Z,1005.99
2019-05-26T09:01:50.259Z,1006.03
2019-05-26T09:02:51.824Z,1005.95
2019-05-26T09:03:50.238Z,1005.99
2019-05-26T09:04:50.320Z,1006.01
2019-05-26T09:05:50.266Z,1005.98
2019-05-26T09:06:50.294Z,1005.93
2019-05-26T09:07:50.236Z,1005.96
2019-05-26T09:08:50.266Z,1005.92
2019-05-26T09:09:50.159Z,1005.93
2019-05-26T09:10:50.362Z,1005.90
2019-05-26T09:11:50.144Z,1005.94
2019-05-26T09:13:00.196Z,1005.91
2019-05-26T09:13:51.124Z,1005.91
2019-05-26T09:14:50.143Z,1005.91
2019-05-26T09:15:50.195Z,1005.86
2019-05-26T09:16:50.162Z,1005.98
2019-05-26T09:17:50.105Z,1005.92
2019-05-26T09:18:50.174Z,1005.93
2019-05-26T09:19:50.061Z,1005.88
2019-05-26T09:20:50.248Z,1005.88
2019-05-26T09:21:50.030Z,1005.96
2019-05-26T09:22:50.111Z,1005.89
2019-05-26T09:23:50.014Z,1005.90
2019-05-26T09:24:50.113Z,1005.92
2019-05-26T09:25:50.016Z,1005.88
2019-05-26T09:26:50.027Z,1005.88
2019-05-26T09:27:49.969Z,1005.86
2019-05-26T09:28:50.037Z,1005.89
2019-05-26T09:29:49.940Z,1005.80
2019-05-26T09:30:50.102Z,1005.84
2019-05-26T09:31:50.051Z,1005.84
2019-05-26T09:32:49.975Z,1005.87
2019-05-26T09:33:49.899Z,1005.85
2019-05-26T09:34:50.087Z,1005.86
2019-05-26T09:35:49.925Z,1005.88
2019-05-26T09:36:49.993Z,1005.86
2019-05-26T09:37:49.862Z,1005.83
2019-05-26T09:38:49.926Z,1005.88
2019-05-26T09:39:49.896Z,1005.84
2019-05-26T09:40:49.959Z,1005.83
2019-05-26T09:41:49.843Z,1005.86
2019-05-26T09:42:49.949Z,1005.82
2019-05-26T09:43:49.792Z,1005.79
2019-05-26T09:44:49.842Z,1005.83
2019-05-26T09:45:49.839Z,1005.91
2019-05-26T09:46:49.904Z,1005.85
2019-05-26T09:47:49.759Z,1005.83
2019-05-26T09:48:49.875Z,1005.80
2019-05-26T09:49:49.799Z,1005.76
2019-05-26T09:50:49.789Z,1005.78
2019-05-26T09:51:49.743Z,1005.74
2019-05-26T09:52:49.846Z,1005.79
2019-05-26T09:54:01.203Z,1005.74
2019-05-26T09:54:50.680Z,1005.72
2019-05-26T09:55:49.731Z,1005.74
2019-05-26T09:56:49.687Z,1005.69
2019-05-26T09:57:49.738Z,1005.74
2019-05-26T09:58:49.653Z,1005.66
2019-05-26T09:59:49.649Z,1005.65
2019-05-26T10:00:49.615Z,1005.66
2019-05-26T10:01:49.650Z,1005.68
2019-05-26T10:02:49.614Z,1005.67
2019-05-26T10:03:49.668Z,1005.66
2019-05-26T10:04:49.578Z,1005.76
2019-05-26T10:05:49.578Z,1005.62
2019-05-26T10:06:49.573Z,1005.62
2019-05-26T10:07:49.809Z,1005.61
2019-05-26T10:08:49.539Z,1005.58
2019-05-26T10:09:49.704Z,1005.69
2019-05-26T10:10:49.595Z,1005.66
2019-05-26T10:12:50.647Z,1005.69
2019-05-26T10:13:49.540Z,1005.65
2019-05-26T10:14:49.460Z,1005.65
2019-05-26T10:15:49.580Z,1005.66
2019-05-26T10:16:49.434Z,1005.60
2019-05-26T10:17:49.509Z,1005.61
2019-05-26T10:18:49.413Z,1005.62
2019-05-26T10:19:49.516Z,1005.62
2019-05-26T10:20:49.392Z,1005.61
2019-05-26T10:21:49.492Z,1005.60
2019-05-26T10:22:49.369Z,1005.54
2019-05-26T10:23:52.920Z,1005.62
2019-05-26T10:24:49.347Z,1005.57
2019-05-26T10:26:50.462Z,1005.60
2019-05-26T10:27:49.494Z,1005.56
2019-05-26T10:28:49.355Z,1005.57
2019-05-26T10:29:49.352Z,1005.58
2019-05-26T10:30:49.296Z,1005.54
2019-05-26T10:31:49.352Z,1005.59
2019-05-26T10:32:49.248Z,1005.54
2019-05-26T10:33:49.309Z,1005.58
2019-05-26T10:34:49.226Z,1005.57
2019-05-26T10:35:49.297Z,1005.58
2019-05-26T10:36:49.223Z,1005.61
2019-05-26T10:37:49.306Z,1005.63
2019-05-26T10:38:49.224Z,1005.59
2019-05-26T10:39:49.217Z,1005.53
2019-05-26T10:40:49.162Z,1005.53
2019-05-26T10:41:49.221Z,1005.55
2019-05-26T10:42:49.171Z,1005.48
2019-05-26T10:43:49.551Z,1005.56
2019-05-26T10:44:49.121Z,1005.53
2019-05-26T10:45:49.265Z,1005.56
2019-05-26T10:46:49.100Z,1005.56
2019-05-26T10:47:49.220Z,1005.55
2019-05-26T10:48:49.108Z,1005.50
2019-05-26T10:49:49.172Z,1005.57
2019-05-26T10:50:49.056Z,1005.52
2019-05-26T10:51:49.089Z,1005.57
2019-05-26T10:52:49.075Z,1005.57
2019-05-26T10:53:49.299Z,1005.54
2019-05-26T10:54:49.016Z,1005.54
2019-05-26T10:55:49.129Z,1005.58
2019-05-26T10:56:48.983Z,1005.52
2019-05-26T10:57:49.045Z,1005.46
2019-05-26T10:58:48.988Z,1005.49
2019-05-26T10:59:49.103Z,1005.47
2019-05-26T11:00:48.954Z,1005.48
2019-05-26T11:01:49.048Z,1005.52
2019-05-26T11:02:48.964Z,1005.48
2019-05-26T11:03:49.088Z,1005.42
2019-05-26T11:04:48.901Z,1005.38
2019-05-26T11:05:48.987Z,1005.40
2019-05-26T11:06:48.916Z,1005.42
2019-05-26T11:07:49.014Z,1005.40
2019-05-26T11:08:48.912Z,1005.46
2019-05-26T11:09:48.903Z,1005.41
2019-05-26T11:10:48.837Z,1005.42
2019-05-26T11:11:49.059Z,1005.38
2019-05-26T11:12:48.828Z,1005.39
2019-05-26T11:14:01.950Z,1005.35
2019-05-26T11:14:49.877Z,1005.35
2019-05-26T11:15:48.935Z,1005.36
2019-05-26T11:16:48.816Z,1005.35
2019-05-26T11:17:48.854Z,1005.34
2019-05-26T11:18:48.785Z,1005.31
2019-05-26T11:19:48.805Z,1005.33
2019-05-26T11:20:48.732Z,1005.32
2019-05-26T11:21:48.781Z,1005.29
2019-05-26T11:22:48.719Z,1005.27
2019-05-26T11:23:48.809Z,1005.21
2019-05-26T11:24:48.720Z,1005.29
2019-05-26T11:25:48.705Z,1005.20
2019-05-26T11:26:48.654Z,1005.22
2019-05-26T11:27:48.716Z,1005.20
2019-05-26T11:28:48.633Z,1005.30
2019-05-26T11:29:48.763Z,1005.26
2019-05-26T11:30:48.646Z,1005.20
2019-05-26T11:31:48.669Z,1005.23
2019-05-26T11:32:48.744Z,1005.20
2019-05-26T11:33:48.687Z,1005.17
2019-05-26T11:35:00.725Z,1005.20
2019-05-26T11:35:49.553Z,1005.12
2019-05-26T11:36:48.641Z,1005.13
2019-05-26T11:37:48.539Z,1005.09
2019-05-26T11:38:48.611Z,1005.18
2019-05-26T11:39:48.553Z,1005.10
2019-05-26T11:40:48.649Z,1005.05
2019-05-26T11:41:54.694Z,1005.10
2019-05-26T11:42:49.549Z,1005.05
2019-05-26T11:43:48.467Z,1005.01
2019-05-26T11:44:48.588Z,1005.03
2019-05-26T11:45:48.647Z,1005.08
2019-05-26T11:46:48.550Z,1005.06
2019-05-26T11:47:48.428Z,1005.04
2019-05-26T11:48:48.461Z,1004.94
2019-05-26T11:49:48.425Z,1004.97
2019-05-26T11:50:48.518Z,1004.95
2019-05-26T11:51:48.386Z,1004.97
2019-05-26T11:52:48.490Z,1004.97
2019-05-26T11:53:48.358Z,1004.94
2019-05-26T11:54:48.402Z,1004.93
2019-05-26T11:55:48.361Z,1005.00
2019-05-26T11:56:48.413Z,1004.95
2019-05-26T11:57:48.321Z,1004.89
2019-05-26T11:58:48.425Z,1004.82
2019-05-26T11:59:48.288Z,1004.83
2019-05-26T12:00:48.406Z,1004.84
2019-05-26T12:01:48.289Z,1004.86
2019-05-26T12:02:48.354Z,1004.87
2019-05-26T12:03:48.439Z,1004.78
2019-05-26T12:04:48.366Z,1004.83
2019-05-26T12:05:48.322Z,1004.80
2019-05-26T12:06:48.286Z,1004.83
2019-05-26T12:07:48.204Z,1004.88
2019-05-26T12:08:48.313Z,1004.81
2019-05-26T12:09:48.184Z,1004.78
2019-05-26T12:10:49.267Z,1004.75
2019-05-26T12:11:48.162Z,1004.74
2019-05-26T12:12:48.219Z,1004.72
2019-05-26T12:13:48.235Z,1004.71
2019-05-26T12:14:48.232Z,1004.64
2019-05-26T12:15:48.206Z,1004.68
2019-05-26T12:16:48.263Z,1004.69
2019-05-26T12:17:48.099Z,1004.60
2019-05-26T12:18:48.158Z,1004.62
2019-05-26T12:19:48.152Z,1004.66
2019-05-26T12:20:48.307Z,1004.60
2019-05-26T12:21:48.138Z,1004.57
2019-05-26T12:22:48.327Z,1004.59
2019-05-26T12:23:48.045Z,1004.51
2019-05-26T12:24:48.107Z,1004.49
2019-05-26T12:25:48.018Z,1004.51
2019-05-26T12:26:48.166Z,1004.52
2019-05-26T12:27:48.009Z,1004.51
2019-05-26T12:28:48.054Z,1004.53
2019-05-26T12:29:47.967Z,1004.54
2019-05-26T12:30:48.034Z,1004.62
2019-05-26T12:31:47.979Z,1004.53
2019-05-26T12:32:48.049Z,1004.57
2019-05-26T12:33:47.977Z,1004.53
2019-05-26T12:34:47.978Z,1004.53
2019-05-26T12:35:47.913Z,1004.54